Darstellungsparameter: Aktuell verwendete Einstellungen:
Skalierung der Graphiken ... ?
xyx+y,   Skalierungsfaktor:      Skalierung: Modus: x, Faktor: 1
Darstellungszeitraum ... ?
Vom - - bis: - -   Zeitraum: 26.01.2021 - 26.01.2021
Min/Max/Avg-Anzeige ... ?
Zeige MMA aktuell
Zeige MMA Monat
Zeige MMA alles
Zeige --A aktuell
Zeige --A Monat
Zeige --A alles
Keine MMA-Anzeige
MMA:
Keine MMA-Graphiken
MMA-Basis: 26.01.2021 - 26.01.2021
Quicknavigation für Darstellung... ?
Tage:      1T, 2T, 3T, 5T -1T -2T -3T -5T +1T +2T +3T +5T
Wochen: 1W, 2W, 3W -1W -2W -3W +1W +2W +3W
Monate: 1M, 3M, 6M -1M -3M -6M +1M +3M +6M
Jahre:    1J, 3J, 5J, 10J -1J -3J -5J -10J +1J +3J +5J +10J
Nutze für die Darstellung ... ?
Originaldaten oder Mittelwerte auf ...
Stundenbasis Tagesbasis Wochenbasis
Monatsbasis Jahresbasis      Datenbasis: Original-Daten
Darstellen als:
Statistik (Auto) Statistik J:M      Darstellung:

Der gewünschte Datumsbereich war nicht gültig/verfügbar und wurde korrigiert....
Das angegebene Enddatum (27.05.2021 23:59:59) liegt in der Zukunft.
Das angegebene Startdatum (27.05.2021 00:00:00) liegt in der Zukunft.


Zur Graphik,    zurück zur Übersicht aller Sensoren.
 
Tabellarische Datenbersicht: ?
 
Sensor: Nr:Datum:Temp:Abs-Feuchte:Windchill:Wind:
Aussen-T/F 1 26-01-2021 01:00:00 1.8 C 4.82 g/m*3 -1.09 C 9.7 km/h
2 26-01-2021 01:05:00 1.8 C 4.82 g/m*3 -1.8 C 12.9 km/h
3 26-01-2021 01:10:00 1.8 C 4.82 g/m*3 -2.38 C 16.1 km/h
4 26-01-2021 01:15:00 1.8 C 4.82 g/m*3 -2.11 C 14.5 km/h
5 26-01-2021 01:20:00 1.8 C 4.82 g/m*3 -1.09 C 9.7 km/h
6 26-01-2021 01:25:00 1.8 C 4.82 g/m*3 -1.09 C 9.7 km/h
7 26-01-2021 01:30:00 1.7 C 4.85 g/m*3 -2.23 C 14.5 km/h
8 26-01-2021 01:35:00 1.7 C 4.85 g/m*3 -1.59 C 11.3 km/h
9 26-01-2021 01:40:00 1.7 C 4.85 g/m*3 -1.59 C 11.3 km/h
10 26-01-2021 01:45:00 1.7 C 4.85 g/m*3 -2.76 C 17.7 km/h
11 26-01-2021 01:50:00 1.7 C 4.85 g/m*3 -2.51 C 16.1 km/h
12 26-01-2021 01:55:00 1.7 C 4.85 g/m*3 -1.93 C 12.9 km/h
13 26-01-2021 02:00:00 1.8 C 4.88 g/m*3 -2.11 C 14.5 km/h
14 26-01-2021 02:05:00 1.8 C 4.88 g/m*3 -0.65 C 8.1 km/h
15 26-01-2021 02:10:00 1.8 C 4.88 g/m*3 -1.09 C 9.7 km/h
16 26-01-2021 02:15:00 1.8 C 4.88 g/m*3 -3.09 C 20.9 km/h
17 26-01-2021 02:20:00 1.9 C 4.91 g/m*3 -2.97 C 20.9 km/h
18 26-01-2021 02:25:00 1.9 C 4.91 g/m*3 -0.54 C 8.1 km/h
19 26-01-2021 02:30:00 1.9 C 4.86 g/m*3 -0.54 C 8.1 km/h
20 26-01-2021 02:35:00 1.9 C 4.91 g/m*3 -1.35 C 11.3 km/h
21 26-01-2021 02:40:00 1.8 C 4.88 g/m*3 -1.47 C 11.3 km/h
22 26-01-2021 02:45:00 1.8 C 4.88 g/m*3 -2.38 C 16.1 km/h
23 26-01-2021 02:50:00 1.9 C 4.91 g/m*3 -3.36 C 24.1 km/h
24 26-01-2021 02:55:00 2.1 C 4.92 g/m*3 -2.71 C 20.9 km/h
25 26-01-2021 03:00:00 2.1 C 4.92 g/m*3 -1.44 C 12.9 km/h
Sensor: Nr:Datum:Temp:Abs-Feuchte:Windchill:Wind:
Aussen-T/F 26 26-01-2021 03:05:00 2.1 C 4.92 g/m*3 -1.74 C 14.5 km/h
27 26-01-2021 03:10:00 2 C 4.89 g/m*3 -2.14 C 16.1 km/h
28 26-01-2021 03:15:00 2 C 4.89 g/m*3 -0.85 C 9.7 km/h
29 26-01-2021 03:20:00 2 C 4.95 g/m*3 -0.42 C 8.1 km/h
30 26-01-2021 03:25:00 2 C 4.95 g/m*3 -1.23 C 11.3 km/h
31 26-01-2021 03:30:00 2.1 C 4.98 g/m*3 -0.73 C 9.7 km/h
32 26-01-2021 03:35:00 2.1 C 4.92 g/m*3 -2.5 C 19.3 km/h
33 26-01-2021 03:40:00 2.1 C 4.92 g/m*3 -1.44 C 12.9 km/h
34 26-01-2021 03:45:00 2.1 C 4.98 g/m*3 -0.73 C 9.7 km/h
35 26-01-2021 03:50:00 2.1 C 4.98 g/m*3 -1.74 C 14.5 km/h
36 26-01-2021 03:55:00 2.1 C 4.98 g/m*3 -0.3 C 8.1 km/h
37 26-01-2021 04:00:00 2.1 C 4.98 g/m*3 -2.01 C 16.1 km/h
38 26-01-2021 04:05:00 2.1 C 4.98 g/m*3 -1.74 C 14.5 km/h
39 26-01-2021 04:10:00 2.2 C 5.01 g/m*3 -2.37 C 19.3 km/h
40 26-01-2021 04:15:00 2.2 C 5.01 g/m*3 -1.32 C 12.9 km/h
41 26-01-2021 04:20:00 2.3 C 4.99 g/m*3 -0.87 C 11.3 km/h
42 26-01-2021 04:25:00 2.4 C 5.02 g/m*3 -0.74 C 11.3 km/h
43 26-01-2021 04:30:00 2.4 C 5.02 g/m*3 -1.64 C 16.1 km/h
44 26-01-2021 04:35:00 2.4 C 5.02 g/m*3 -1.37 C 14.5 km/h
45 26-01-2021 04:40:00 2.5 C 5.06 g/m*3 -0.95 C 12.9 km/h
46 26-01-2021 04:45:00 2.5 C 5.06 g/m*3 -0.62 C 11.3 km/h
47 26-01-2021 04:50:00 2.6 C 5.09 g/m*3 -1.39 C 16.1 km/h
48 26-01-2021 04:55:00 2.6 C 5.09 g/m*3 -0.14 C 9.7 km/h
49 26-01-2021 05:00:00 2.5 C 5.06 g/m*3 -0.95 C 12.9 km/h
50 26-01-2021 05:05:00 2.5 C 5.06 g/m*3 -0.95 C 12.9 km/h
Sensor: Nr:Datum:Temp:Abs-Feuchte:Windchill:Wind:
Aussen-T/F 51 26-01-2021 05:10:00 2.5 C 5.12 g/m*3 -0.95 C 12.9 km/h
52 26-01-2021 05:15:00 2.6 C 5.15 g/m*3 -1.39 C 16.1 km/h
53 26-01-2021 05:20:00 2.6 C 5.15 g/m*3 -1.12 C 14.5 km/h
54 26-01-2021 05:25:00 2.7 C 5.13 g/m*3 -1.51 C 17.7 km/h
55 26-01-2021 05:30:00 2.8 C 5.16 g/m*3 -1.39 C 17.7 km/h
56 26-01-2021 05:35:00 3 C 5.23 g/m*3 -1.14 C 17.7 km/h
57 26-01-2021 05:40:00 3.2 C 5.24 g/m*3 -0.89 C 17.7 km/h
58 26-01-2021 05:45:00 3.2 C 5.18 g/m*3 -0.65 C 16.1 km/h
59 26-01-2021 05:50:00 3.3 C 5.22 g/m*3 -0.52 C 16.1 km/h
60 26-01-2021 05:55:00 3.3 C 5.22 g/m*3 -0.26 C 14.5 km/h
61 26-01-2021 06:00:00 3.2 C 5.24 g/m*3 -0.65 C 16.1 km/h
62 26-01-2021 06:05:00 3.2 C 5.24 g/m*3 -0.39 C 14.5 km/h
63 26-01-2021 06:10:00 3.2 C 5.24 g/m*3 -1.32 C 20.9 km/h
64 26-01-2021 06:15:00 3.2 C 5.24 g/m*3 -0.1 C 12.9 km/h
65 26-01-2021 06:20:00 3.2 C 5.24 g/m*3 -0.1 C 12.9 km/h
66 26-01-2021 06:25:00 3.2 C 5.24 g/m*3 -0.89 C 17.7 km/h
67 26-01-2021 06:30:00 3.2 C 5.24 g/m*3 -0.1 C 12.9 km/h
68 26-01-2021 06:35:00 3.2 C 5.24 g/m*3 -0.89 C 17.7 km/h
69 26-01-2021 06:40:00 3.2 C 5.24 g/m*3 -0.65 C 16.1 km/h
70 26-01-2021 06:45:00 3.1 C 5.21 g/m*3 -0.77 C 16.1 km/h
71 26-01-2021 06:50:00 3.1 C 5.27 g/m*3 -0.22 C 12.9 km/h
72 26-01-2021 06:55:00 3.1 C 5.27 g/m*3 0.1 C 11.3 km/h
73 26-01-2021 07:00:00 3.1 C 5.27 g/m*3 0.1 C 11.3 km/h
74 26-01-2021 07:05:00 3.2 C 5.3 g/m*3 -0.39 C 14.5 km/h
75 26-01-2021 07:10:00 3.2 C 5.24 g/m*3 -0.89 C 17.7 km/h
Sensor: Nr:Datum:Temp:Abs-Feuchte:Windchill:Wind:
Aussen-T/F 76 26-01-2021 07:15:00 3.2 C 5.24 g/m*3 -1.32 C 20.9 km/h
77 26-01-2021 07:20:00 3.3 C 5.22 g/m*3 -0.76 C 17.7 km/h
78 26-01-2021 07:25:00 3.4 C 5.25 g/m*3 -0.4 C 16.1 km/h
79 26-01-2021 07:30:00 3.4 C 5.25 g/m*3 -0.14 C 14.5 km/h
80 26-01-2021 07:35:00 3.4 C 5.25 g/m*3 0.14 C 12.9 km/h
81 26-01-2021 07:40:00 3.5 C 5.23 g/m*3 -0.28 C 16.1 km/h
82 26-01-2021 07:45:00 3.6 C 5.26 g/m*3 0.11 C 14.5 km/h
83 26-01-2021 07:50:00 3.7 C 5.3 g/m*3 0.23 C 14.5 km/h
84 26-01-2021 07:55:00 3.7 C 5.23 g/m*3 0.51 C 12.9 km/h
85 26-01-2021 08:00:00 3.8 C 5.27 g/m*3 -0.14 C 17.7 km/h
86 26-01-2021 08:05:00 3.8 C 5.21 g/m*3 0.35 C 14.5 km/h
87 26-01-2021 08:10:00 3.8 C 5.21 g/m*3 0.35 C 14.5 km/h
88 26-01-2021 08:15:00 3.8 C 5.21 g/m*3 0.94 C 11.3 km/h
89 26-01-2021 08:20:00 3.8 C 5.21 g/m*3 0.94 C 11.3 km/h
90 26-01-2021 08:25:00 3.8 C 5.21 g/m*3 -0.14 C 17.7 km/h
91 26-01-2021 08:30:00 3.8 C 5.21 g/m*3 0.63 C 12.9 km/h
92 26-01-2021 08:35:00 3.8 C 5.21 g/m*3 -0.14 C 17.7 km/h
93 26-01-2021 08:40:00 3.8 C 5.21 g/m*3 0.1 C 16.1 km/h
94 26-01-2021 08:45:00 3.8 C 5.21 g/m*3 -0.14 C 17.7 km/h
95 26-01-2021 08:50:00 3.8 C 5.21 g/m*3 0.1 C 16.1 km/h
96 26-01-2021 08:55:00 3.8 C 5.21 g/m*3 0.35 C 14.5 km/h
97 26-01-2021 09:00:00 3.8 C 5.27 g/m*3 0.94 C 11.3 km/h
98 26-01-2021 09:05:00 3.7 C 5.23 g/m*3 -0.26 C 17.7 km/h
99 26-01-2021 09:10:00 3.8 C 5.27 g/m*3 0.63 C 12.9 km/h
100 26-01-2021 09:15:00 3.8 C 5.27 g/m*3 0.1 C 16.1 km/h
Sensor: Nr:Datum:Temp:Abs-Feuchte:Windchill:Wind:
Aussen-T/F 101 26-01-2021 09:20:00 3.8 C 5.27 g/m*3 0.35 C 14.5 km/h
102 26-01-2021 09:25:00 3.8 C 5.21 g/m*3 -0.14 C 17.7 km/h
103 26-01-2021 09:30:00 3.8 C 5.27 g/m*3 0.63 C 12.9 km/h
104 26-01-2021 09:35:00 3.8 C 5.27 g/m*3 0.63 C 12.9 km/h
105 26-01-2021 09:40:00 3.8 C 5.21 g/m*3 0.1 C 16.1 km/h
106 26-01-2021 09:45:00 3.8 C 5.27 g/m*3 0.94 C 11.3 km/h
107 26-01-2021 09:50:00 3.9 C 5.31 g/m*3 0.47 C 14.5 km/h
108 26-01-2021 09:55:00 3.9 C 5.31 g/m*3 1.06 C 11.3 km/h
109 26-01-2021 10:00:00 4 C 5.34 g/m*3 1.53 C 9.7 km/h
110 26-01-2021 10:05:00 4.1 C 5.31 g/m*3 1 C 12.9 km/h
111 26-01-2021 10:10:00 4.1 C 5.31 g/m*3 0.72 C 14.5 km/h
112 26-01-2021 10:15:00 4.2 C 5.35 g/m*3 0.59 C 16.1 km/h
113 26-01-2021 10:20:00 4.2 C 5.35 g/m*3 0.84 C 14.5 km/h
114 26-01-2021 10:25:00 4.2 C 5.35 g/m*3 2.17 C 8.1 km/h
115 26-01-2021 10:30:00 4.3 C 5.38 g/m*3 0.97 C 14.5 km/h
116 26-01-2021 10:35:00 4.3 C 5.32 g/m*3 0.97 C 14.5 km/h
117 26-01-2021 10:40:00 4.3 C 5.32 g/m*3 0.97 C 14.5 km/h
118 26-01-2021 10:45:00 4.3 C 5.32 g/m*3 1.55 C 11.3 km/h
119 26-01-2021 10:50:00 4.4 C 5.35 g/m*3 1.09 C 14.5 km/h
120 26-01-2021 10:55:00 4.4 C 5.29 g/m*3 1.67 C 11.3 km/h
121 26-01-2021 11:00:00 4.4 C 5.35 g/m*3 1.67 C 11.3 km/h
122 26-01-2021 11:05:00 4.4 C 5.29 g/m*3 1.09 C 14.5 km/h
123 26-01-2021 11:10:00 4.5 C 5.32 g/m*3 0.52 C 19.3 km/h
124 26-01-2021 11:15:00 4.5 C 5.32 g/m*3 2.13 C 9.7 km/h
125 26-01-2021 11:20:00 4.6 C 5.36 g/m*3 1.34 C 14.5 km/h
Sensor: Nr:Datum:Temp:Abs-Feuchte:Windchill:Wind:
Aussen-T/F 126 26-01-2021 11:25:00 4.6 C 5.36 g/m*3 1.91 C 11.3 km/h
127 26-01-2021 11:30:00 4.6 C 5.36 g/m*3 1.34 C 14.5 km/h
128 26-01-2021 11:35:00 4.6 C 5.36 g/m*3 1.09 C 16.1 km/h
129 26-01-2021 11:40:00 4.7 C 5.4 g/m*3 0.99 C 17.7 km/h
130 26-01-2021 11:45:00 4.7 C 5.4 g/m*3 0.99 C 17.7 km/h
131 26-01-2021 11:50:00 4.7 C 5.33 g/m*3 0.78 C 19.3 km/h
132 26-01-2021 11:55:00 4.7 C 5.33 g/m*3 1.21 C 16.1 km/h
133 26-01-2021 12:00:00 4.7 C 5.4 g/m*3 1.46 C 14.5 km/h
134 26-01-2021 12:05:00 4.7 C 5.4 g/m*3 1.73 C 12.9 km/h
135 26-01-2021 12:10:00 4.7 C 5.4 g/m*3 1.21 C 16.1 km/h
136 26-01-2021 12:15:00 4.8 C 5.43 g/m*3 2.15 C 11.3 km/h
137 26-01-2021 12:20:00 4.8 C 5.43 g/m*3 2.49 C 9.7 km/h
138 26-01-2021 12:25:00 4.8 C 5.43 g/m*3 1.58 C 14.5 km/h
139 26-01-2021 12:30:00 4.9 C 5.47 g/m*3 2.61 C 9.7 km/h
140 26-01-2021 12:35:00 4.9 C 5.47 g/m*3 2.61 C 9.7 km/h
141 26-01-2021 12:40:00 5 C 5.5 g/m*3 2.09 C 12.9 km/h
142 26-01-2021 12:45:00 5.1 C 5.47 g/m*3 1.95 C 14.5 km/h
143 26-01-2021 12:50:00 5.1 C 5.47 g/m*3 2.22 C 12.9 km/h
144 26-01-2021 12:55:00 5.1 C 5.47 g/m*3 2.51 C 11.3 km/h
145 26-01-2021 13:00:00 5.2 C 5.51 g/m*3 2.07 C 14.5 km/h
146 26-01-2021 13:05:00 5.2 C 5.51 g/m*3 2.07 C 14.5 km/h
147 26-01-2021 13:10:00 5.2 C 5.44 g/m*3 2.63 C 11.3 km/h
148 26-01-2021 13:15:00 5.2 C 5.44 g/m*3 2.96 C 9.7 km/h
149 26-01-2021 13:20:00 5.2 C 5.44 g/m*3 2.07 C 14.5 km/h
150 26-01-2021 13:25:00 5.2 C 5.44 g/m*3 2.34 C 12.9 km/h
Sensor: Nr:Datum:Temp:Abs-Feuchte:Windchill:Wind:
Aussen-T/F 151 26-01-2021 13:30:00 5.1 C 5.4 g/m*3 1.71 C 16.1 km/h
152 26-01-2021 13:35:00 5.1 C 5.47 g/m*3 1.71 C 16.1 km/h
153 26-01-2021 13:40:00 5.1 C 5.4 g/m*3 1.95 C 14.5 km/h
154 26-01-2021 13:45:00 5.1 C 5.47 g/m*3 2.51 C 11.3 km/h
155 26-01-2021 13:50:00 5.1 C 5.47 g/m*3 2.84 C 9.7 km/h
156 26-01-2021 13:55:00 5.1 C 5.47 g/m*3 1.71 C 16.1 km/h
157 26-01-2021 14:00:00 5.1 C 5.47 g/m*3 1.71 C 16.1 km/h
158 26-01-2021 14:05:00 5 C 5.44 g/m*3 1.83 C 14.5 km/h
159 26-01-2021 14:10:00 5.1 C 5.47 g/m*3 2.51 C 11.3 km/h
160 26-01-2021 14:15:00 5 C 5.44 g/m*3 2.09 C 12.9 km/h
161 26-01-2021 14:20:00 5 C 5.37 g/m*3 0.96 C 20.9 km/h
162 26-01-2021 14:25:00 5 C 5.37 g/m*3 1.36 C 17.7 km/h
163 26-01-2021 14:30:00 5 C 5.44 g/m*3 2.39 C 11.3 km/h
164 26-01-2021 14:35:00 5 C 5.44 g/m*3 2.09 C 12.9 km/h
165 26-01-2021 14:40:00 5 C 5.44 g/m*3 1.15 C 19.3 km/h
166 26-01-2021 14:45:00 5 C 5.37 g/m*3 1.83 C 14.5 km/h
167 26-01-2021 14:50:00 5 C 5.44 g/m*3 2.39 C 11.3 km/h
168 26-01-2021 14:55:00 4.9 C 5.4 g/m*3 2.61 C 9.7 km/h
169 26-01-2021 15:00:00 4.9 C 5.33 g/m*3 2.27 C 11.3 km/h
170 26-01-2021 15:05:00 4.8 C 5.3 g/m*3 2.49 C 9.7 km/h
171 26-01-2021 15:10:00 4.8 C 5.36 g/m*3 2.15 C 11.3 km/h
172 26-01-2021 15:15:00 4.8 C 5.36 g/m*3 1.85 C 12.9 km/h
173 26-01-2021 15:20:00 4.8 C 5.36 g/m*3 1.85 C 12.9 km/h
174 26-01-2021 15:25:00 4.7 C 5.33 g/m*3 2.03 C 11.3 km/h
175 26-01-2021 15:30:00 4.7 C 5.33 g/m*3 1.46 C 14.5 km/h
Sensor: Nr:Datum:Temp:Abs-Feuchte:Windchill:Wind:
Aussen-T/F 176 26-01-2021 15:35:00 4.7 C 5.33 g/m*3 1.73 C 12.9 km/h
177 26-01-2021 15:40:00 4.6 C 5.29 g/m*3 0.65 C 19.3 km/h
178 26-01-2021 15:45:00 4.6 C 5.29 g/m*3 1.61 C 12.9 km/h
179 26-01-2021 15:50:00 4.6 C 5.29 g/m*3 1.09 C 16.1 km/h
180 26-01-2021 15:55:00 4.6 C 5.29 g/m*3 2.25 C 9.7 km/h
181 26-01-2021 16:00:00 4.6 C 5.29 g/m*3 1.91 C 11.3 km/h
182 26-01-2021 16:05:00 4.6 C 5.29 g/m*3 1.61 C 12.9 km/h
183 26-01-2021 16:10:00 4.6 C 5.29 g/m*3 2.25 C 9.7 km/h
184 26-01-2021 16:15:00 4.6 C 5.29 g/m*3 2.25 C 9.7 km/h
185 26-01-2021 16:20:00 4.6 C 5.29 g/m*3 1.61 C 12.9 km/h
186 26-01-2021 16:25:00 4.6 C 5.29 g/m*3 1.34 C 14.5 km/h
187 26-01-2021 16:30:00 4.6 C 5.29 g/m*3 1.61 C 12.9 km/h
188 26-01-2021 16:35:00 4.6 C 5.29 g/m*3 1.91 C 11.3 km/h
189 26-01-2021 16:40:00 4.6 C 5.23 g/m*3 1.91 C 11.3 km/h
190 26-01-2021 16:45:00 4.5 C 5.19 g/m*3 0.96 C 16.1 km/h
191 26-01-2021 16:50:00 4.4 C 5.16 g/m*3 1.36 C 12.9 km/h
192 26-01-2021 16:55:00 4.4 C 5.16 g/m*3 1.36 C 12.9 km/h
193 26-01-2021 17:00:00 4.3 C 5.12 g/m*3 0.49 C 17.7 km/h
194 26-01-2021 17:05:00 4.3 C 5.12 g/m*3 1.55 C 11.3 km/h
195 26-01-2021 17:10:00 4.3 C 5.12 g/m*3 1.24 C 12.9 km/h
196 26-01-2021 17:15:00 4.2 C 5.03 g/m*3 0.59 C 16.1 km/h
197 26-01-2021 17:20:00 4.2 C 5.09 g/m*3 0.84 C 14.5 km/h
198 26-01-2021 17:25:00 4.2 C 5.09 g/m*3 1.12 C 12.9 km/h
199 26-01-2021 17:30:00 4.1 C 4.99 g/m*3 1 C 12.9 km/h
200 26-01-2021 17:35:00 4.1 C 4.99 g/m*3 0.02 C 19.3 km/h
Sensor: Nr:Datum:Temp:Abs-Feuchte:Windchill:Wind:
Aussen-T/F 201 26-01-2021 17:40:00 4 C 4.96 g/m*3 -0.11 C 19.3 km/h
202 26-01-2021 17:45:00 3.9 C 4.93 g/m*3 1.06 C 11.3 km/h
203 26-01-2021 17:50:00 3.9 C 4.99 g/m*3 1.06 C 11.3 km/h
204 26-01-2021 17:55:00 3.8 C 4.96 g/m*3 0.94 C 11.3 km/h
205 26-01-2021 18:00:00 3.8 C 4.96 g/m*3 0.63 C 12.9 km/h
206 26-01-2021 18:05:00 3.8 C 4.89 g/m*3 0.63 C 12.9 km/h
207 26-01-2021 18:10:00 3.7 C 4.92 g/m*3 1.58 C 8.1 km/h
208 26-01-2021 18:15:00 3.7 C 4.92 g/m*3 1.58 C 8.1 km/h
209 26-01-2021 18:20:00 3.6 C 4.89 g/m*3 3.6 C 4.8 km/h
210 26-01-2021 18:25:00 3.4 C 4.83 g/m*3 1.23 C 8.1 km/h
211 26-01-2021 18:30:00 3.3 C 4.85 g/m*3 1.11 C 8.1 km/h
212 26-01-2021 18:35:00 3.2 C 4.88 g/m*3 3.2 C 3.2 km/h
213 26-01-2021 18:40:00 2.9 C 4.78 g/m*3 0.64 C 8.1 km/h
214 26-01-2021 18:45:00 2.8 C 4.75 g/m*3 1.05 C 6.4 km/h
215 26-01-2021 18:50:00 2.6 C 4.75 g/m*3 0.29 C 8.1 km/h
216 26-01-2021 18:55:00 2.5 C 4.77 g/m*3 0.17 C 8.1 km/h
217 26-01-2021 19:00:00 2.4 C 4.74 g/m*3 0.05 C 8.1 km/h
218 26-01-2021 19:05:00 2.3 C 4.76 g/m*3 2.3 C 4.8 km/h
219 26-01-2021 19:10:00 2.2 C 4.73 g/m*3 2.2 C 4.8 km/h
220 26-01-2021 19:15:00 2.1 C 4.76 g/m*3 0.24 C 6.4 km/h
221 26-01-2021 19:20:00 2.1 C 4.76 g/m*3 -0.3 C 8.1 km/h
222 26-01-2021 19:25:00 2 C 4.78 g/m*3 -0.42 C 8.1 km/h
223 26-01-2021 19:30:00 2 C 4.78 g/m*3 -0.42 C 8.1 km/h
224 26-01-2021 19:35:00 2.1 C 4.81 g/m*3 2.1 C 4.8 km/h
225 26-01-2021 19:40:00 2.1 C 4.81 g/m*3 2.1 C 4.8 km/h
Sensor: Nr:Datum:Temp:Abs-Feuchte:Windchill:Wind:
Aussen-T/F 226 26-01-2021 19:45:00 2 C 4.78 g/m*3 2 C 4.8 km/h
227 26-01-2021 19:50:00 1.9 C 4.8 g/m*3 1.9 C 1.6 km/h
228 26-01-2021 19:55:00 1.8 C 4.77 g/m*3 -0.1 C 6.4 km/h
229 26-01-2021 20:00:00 1.8 C 4.82 g/m*3 1.8 C 4.8 km/h
230 26-01-2021 20:05:00 1.8 C 4.82 g/m*3 -0.1 C 6.4 km/h
231 26-01-2021 20:10:00 1.7 C 4.79 g/m*3 -0.22 C 6.4 km/h
232 26-01-2021 20:15:00 1.7 C 4.79 g/m*3 -0.22 C 6.4 km/h
233 26-01-2021 20:20:00 1.7 C 4.79 g/m*3 1.7 C 3.2 km/h
234 26-01-2021 20:25:00 1.7 C 4.79 g/m*3 1.7 C 4.8 km/h
235 26-01-2021 20:30:00 1.7 C 4.85 g/m*3 -0.22 C 6.4 km/h
236 26-01-2021 20:35:00 1.7 C 4.85 g/m*3 -0.77 C 8.1 km/h
237 26-01-2021 20:40:00 1.9 C 4.91 g/m*3 -1.68 C 12.9 km/h
238 26-01-2021 20:45:00 1.9 C 4.91 g/m*3 1.9 C 4.8 km/h
239 26-01-2021 20:50:00 2.1 C 4.98 g/m*3 -0.73 C 9.7 km/h
240 26-01-2021 20:55:00 2.3 C 5.05 g/m*3 -1.76 C 16.1 km/h
241 26-01-2021 21:00:00 2.4 C 5.02 g/m*3 0.59 C 6.4 km/h
242 26-01-2021 21:05:00 2.6 C 5.09 g/m*3 -0.14 C 9.7 km/h
243 26-01-2021 21:10:00 2.6 C 5.09 g/m*3 0.29 C 8.1 km/h
244 26-01-2021 21:15:00 2.7 C 5.07 g/m*3 0.4 C 8.1 km/h
245 26-01-2021 21:20:00 2.7 C 5.07 g/m*3 -0.38 C 11.3 km/h
246 26-01-2021 21:25:00 2.7 C 5.07 g/m*3 -0.02 C 9.7 km/h
247 26-01-2021 21:30:00 2.7 C 5.07 g/m*3 -0.38 C 11.3 km/h
248 26-01-2021 21:35:00 2.7 C 5.07 g/m*3 0.4 C 8.1 km/h
249 26-01-2021 21:40:00 2.7 C 5.07 g/m*3 0.4 C 8.1 km/h
250 26-01-2021 21:45:00 2.7 C 5.07 g/m*3 -0.02 C 9.7 km/h
Sensor: Nr:Datum:Temp:Abs-Feuchte:Windchill:Wind:
Aussen-T/F 251 26-01-2021 21:50:00 2.7 C 5.07 g/m*3 -1.51 C 17.7 km/h
252 26-01-2021 21:55:00 2.7 C 5.07 g/m*3 -0.71 C 12.9 km/h
253 26-01-2021 22:00:00 2.8 C 5.1 g/m*3 -1.39 C 17.7 km/h
254 26-01-2021 22:05:00 2.8 C 5.1 g/m*3 -0.26 C 11.3 km/h
255 26-01-2021 22:10:00 2.8 C 5.1 g/m*3 0.52 C 8.1 km/h
256 26-01-2021 22:15:00 2.8 C 5.1 g/m*3 -0.59 C 12.9 km/h
257 26-01-2021 22:20:00 2.8 C 5.1 g/m*3 -0.26 C 11.3 km/h
258 26-01-2021 22:25:00 2.8 C 5.1 g/m*3 -0.26 C 11.3 km/h
259 26-01-2021 22:30:00 2.8 C 5.04 g/m*3 -0.59 C 12.9 km/h
260 26-01-2021 22:35:00 2.8 C 5.04 g/m*3 0.52 C 8.1 km/h

Legende:
   Min
   Max


Maximal/Minimal-Werte vom 26.01.2021 - 26.01.2021

Sensor Min Max Avg
Temp
(Aussen-T/F)
1.7 °C
26-01-2021  01:30:00
5.2 °C
26-01-2021  13:00:00
3.42 °C
Abs-Feuchte
(Aussen-T/F)
4.73 g/m*3
26-01-2021  19:10:00
5.51 g/m*3
26-01-2021  13:00:00
5.12 g/m*3
Windchill
(Aussen-T/F)
-3.36 C
26-01-2021  02:50:00
3.6 C
26-01-2021  18:20:00
0.36 C

Die Daten stammen von einer Davis Vantage Pro 2 Wetter-Station und werden unter Linux mit der Software wview2wettercgi und aufbereitet. Alle Angaben erfolgen ohne Gewähr für ihre Vollständigkeit oder Richtigkeit.
Kontakt: Rainer Krienke krienke@uni-koblenz.de . Meine Webseiten an der Uni Koblenz oder privat.
Version: $Revision: 0.78 $